Aviation Digital Data Service (ADDS)

Output produced by METARs form (0252 UTC 15 August 2020)
found at http://www.aviationweather.gov/metar/data/
 
NSFA 150200Z VRB03KT 9999 FEW028 SCT290 31/27 Q1008 RMK NIL
NSFA 150100Z 06004KT 9999 FEW024 SCT280 32/27 Q1009 RMK NIL
NSFA 150000Z 03005KT 9999 FEW024 31/27 Q1010 RMK NIL
NSFA 142300Z VRB03KT 9999 FEW024 31/27 Q1011 RMK NIL
NSFA 142200Z VRB03KT 9999 FEW025 30/27 Q1012 RMK NIL
NSFA 142100Z VRB03KT 9999 FEW028 30/26 Q1012 RMK NIL
NSFA 142000Z 08006KT 9999 FEW028 28/26 Q1012 RMK NIL
NSFA 141900Z 09005KT 9999 FEW030 26/24 Q1011 RMK NIL
NSFA 141800Z 09005KT 9999 FEW030 23/22 Q1011 RMK NIL
NSFA 141700Z 11005KT 9999 FEW025 23/23 Q1010 RMK NIL
NSFA 141600Z 12004KT 9999 FEW024 23/23 Q1010 RMK NIL
NSFA 141500Z 11004KT 9999 FEW024 24/23 Q1010 RMK NIL
NSFA 141400Z 12003KT 9999 FEW024 24/23 Q1010 RMK NIL
NSFA 141300Z 08005KT 9999 FEW022 SCT290 24/23 Q1011 RMK NIL
NSFA 141200Z 09006KT 9999 FEW020 24/24 Q1010 RMK NIL
NSFA 141100Z 08004KT 9999 FEW020 BKN290 25/24 Q1011 RMK NIL
NSFA 141000Z 09005KT 9999 FEW020 BKN040 25/24 Q1011 RMK NIL
NSFA 140900Z 08005KT 9999 FEW020 SCT038 25/24 Q1012 RMK NIL
NSFA 140800Z 10006KT 9999 FEW025 SCT060 25/23 Q1012 RMK NIL
NSFA 140700Z 12004KT 9999 FEW025 SCT040 BKN270 25/23 Q1012 RMK NIL
NSFA 140600Z 09004KT 9999 FEW024 SCT040 BKN260 25/24 Q1011 RMK
NSFA 140400Z 03009KT 010V080 9999 FEW020 SCT040 BKN180 27/25 Q1010
NSFA 140300Z 05007KT 010V080 9999 FEW018TCU FEW022 SCT040 BKN160
TAF NSFA 142311Z 1500/1524 14008KT 9999 FEW020